createdAt,value
2019-01-30T00:01:09.964Z,97898.75
2019-01-30T00:03:38.640Z,97891.14
2019-01-30T00:06:08.554Z,97887.27
2019-01-30T00:08:36.727Z,97885.63
2019-01-30T00:11:05.781Z,97889.81
2019-01-30T00:13:33.958Z,97883.98
2019-01-30T00:16:02.030Z,97873.30
2019-01-30T00:18:30.095Z,97883.27
2019-01-30T00:20:58.193Z,97876.63
2019-01-30T00:23:28.090Z,97878.55
2019-01-30T00:25:56.144Z,97858.95
2019-01-30T00:28:25.286Z,97859.42
2019-01-30T00:30:53.337Z,97852.92
2019-01-30T00:33:21.607Z,97848.23
2019-01-30T00:35:49.660Z,97839.31
2019-01-30T00:38:17.822Z,97836.23
2019-01-30T00:40:45.850Z,97825.75
2019-01-30T00:43:13.950Z,97830.12
2019-01-30T00:45:41.992Z,97823.48
2019-01-30T00:48:10.070Z,97819.91
2019-01-30T00:50:38.126Z,97807.78
2019-01-30T00:53:06.208Z,97806.00
2019-01-30T00:55:34.290Z,97800.34
2019-01-30T00:58:02.354Z,97794.38
2019-01-30T01:00:30.623Z,97787.11
2019-01-30T01:02:59.102Z,97778.69
2019-01-30T01:05:27.133Z,97768.02
2019-01-30T01:07:55.407Z,97763.64
2019-01-30T01:10:23.649Z,97762.84
2019-01-30T01:12:51.737Z,97760.56
2019-01-30T01:15:19.838Z,97751.65
2019-01-30T01:17:48.997Z,97750.66
2019-01-30T01:20:17.268Z,97748.57
2019-01-30T01:22:45.442Z,97747.92
2019-01-30T01:25:16.041Z,97768.43
2019-01-30T01:27:45.230Z,97756.80
2019-01-30T01:30:25.123Z,97755.32
2019-01-30T01:32:49.790Z,97751.26
2019-01-30T01:35:17.964Z,97740.58
2019-01-30T01:37:46.032Z,97733.62
2019-01-30T01:40:15.783Z,97730.37
2019-01-30T01:42:44.160Z,97731.02
2019-01-30T01:45:18.237Z,97723.56
2019-01-30T01:47:46.301Z,97718.52
2019-01-30T01:50:17.231Z,97713.66
2019-01-30T01:52:45.277Z,97703.47
2019-01-30T01:55:14.541Z,97704.39
2019-01-30T01:57:42.586Z,97687.58
2019-01-30T02:00:17.059Z,97690.48
2019-01-30T02:02:45.358Z,97684.50
2019-01-30T02:05:16.637Z,97681.73
2019-01-30T02:07:44.685Z,97681.73
2019-01-30T02:10:16.244Z,97671.08
2019-01-30T02:12:44.356Z,97671.08
2019-01-30T02:15:16.358Z,97663.32
2019-01-30T02:17:44.393Z,97660.73
2019-01-30T02:20:22.105Z,97658.15
2019-01-30T02:22:50.534Z,97652.48
2019-01-30T02:25:18.875Z,97657.66
2019-01-30T02:27:46.901Z,97664.92
2019-01-30T02:30:20.907Z,97659.75
2019-01-30T02:32:49.127Z,97671.08
2019-01-30T02:35:17.500Z,97661.23
2019-01-30T02:37:45.540Z,97662.83
2019-01-30T02:40:15.689Z,97655.07
2019-01-30T02:42:43.848Z,97653.59
2019-01-30T02:45:15.171Z,97654.42
2019-01-30T02:47:43.233Z,97649.37
2019-01-30T02:50:13.923Z,97641.42
2019-01-30T02:52:41.990Z,97649.33
2019-01-30T02:55:12.774Z,97640.75
2019-01-30T02:57:40.873Z,97641.88
2019-01-30T03:00:24.193Z,97645.08
2019-01-30T03:02:52.353Z,97633.75
2019-01-30T03:05:20.426Z,97634.70
2019-01-30T03:07:48.846Z,97638.08
2019-01-30T03:10:17.469Z,97632.11
2019-01-30T03:12:45.676Z,97628.23
2019-01-30T03:15:14.414Z,97629.19
2019-01-30T03:17:42.497Z,97630.66
2019-01-30T03:20:19.174Z,97626.59
2019-01-30T03:22:47.340Z,97627.24
2019-01-30T03:25:16.207Z,97623.86
2019-01-30T03:27:44.417Z,97620.47
2019-01-30T03:30:25.029Z,97622.37
2019-01-30T03:32:53.616Z,97611.53
2019-01-30T03:35:22.163Z,97616.03
2019-01-30T03:37:50.194Z,97612.30
2019-01-30T03:40:18.815Z,97616.48
2019-01-30T03:42:46.878Z,97609.82
2019-01-30T03:45:17.516Z,97607.54
2019-01-30T03:47:45.601Z,97610.74
2019-01-30T03:50:13.801Z,97613.66
2019-01-30T03:52:42.967Z,97614.58
2019-01-30T03:55:12.515Z,97607.92
2019-01-30T03:57:40.595Z,97595.78
2019-01-30T04:00:13.513Z,97593.84
2019-01-30T04:02:41.572Z,97592.35
2019-01-30T04:05:09.749Z,97589.77
2019-01-30T04:07:37.811Z,97593.04
2019-01-30T04:10:07.272Z,97589.02
2019-01-30T04:12:35.371Z,97578.84
2019-01-30T04:15:04.864Z,97572.08
2019-01-30T04:17:32.919Z,97562.03
2019-01-30T04:20:00.975Z,97570.59
2019-01-30T04:22:29.477Z,97561.34
2019-01-30T04:24:57.530Z,97569.91
2019-01-30T04:27:25.578Z,97553.89
2019-01-30T04:29:53.652Z,97547.42
2019-01-30T04:32:21.775Z,97549.05
2019-01-30T04:34:49.867Z,97541.89
2019-01-30T04:37:17.944Z,97533.94
2019-01-30T04:39:46.013Z,97531.16
2019-01-30T04:42:14.048Z,97524.98
2019-01-30T04:44:42.200Z,97516.27
2019-01-30T04:47:10.294Z,97520.95
2019-01-30T04:49:38.755Z,97526.42
2019-01-30T04:52:07.094Z,97528.41
2019-01-30T04:54:35.235Z,97522.59
2019-01-30T04:57:03.317Z,97533.94
2019-01-30T04:59:33.528Z,97538.01
2019-01-30T05:02:03.304Z,97523.28
2019-01-30T05:04:31.483Z,97538.50
2019-01-30T05:07:01.281Z,97513.78
2019-01-30T05:09:29.377Z,97524.02
2019-01-30T05:11:57.427Z,97518.77
2019-01-30T05:14:26.626Z,97510.41
2019-01-30T05:16:54.711Z,97497.66
2019-01-30T05:19:22.798Z,97507.17
2019-01-30T05:21:50.921Z,97498.20
2019-01-30T05:24:19.010Z,97508.55
2019-01-30T05:26:47.190Z,97521.37
2019-01-30T05:29:15.459Z,97528.48
2019-01-30T05:31:43.617Z,97546.48
2019-01-30T05:34:11.680Z,97535.68
2019-01-30T05:36:39.778Z,97555.72
2019-01-30T05:39:08.758Z,97524.23
2019-01-30T05:41:36.890Z,97550.82
2019-01-30T05:44:04.974Z,97563.48
2019-01-30T05:46:33.361Z,97539.48
2019-01-30T05:49:01.429Z,97537.42
2019-01-30T05:51:29.835Z,97538.11
2019-01-30T05:53:57.921Z,97534.45
2019-01-30T05:56:27.731Z,97532.05
2019-01-30T05:58:55.817Z,97524.30
2019-01-30T06:01:24.246Z,97518.63
2019-01-30T06:03:54.212Z,97522.20
2019-01-30T06:06:22.381Z,97508.60
2019-01-30T06:08:50.478Z,97508.23
2019-01-30T06:11:18.588Z,97504.19
2019-01-30T06:13:46.651Z,97489.63
2019-01-30T06:16:14.762Z,97499.36
2019-01-30T06:18:42.811Z,97500.84
2019-01-30T06:21:10.868Z,97502.83
2019-01-30T06:23:38.926Z,97498.41
2019-01-30T06:26:06.996Z,97498.45
2019-01-30T06:28:35.313Z,97507.38
2019-01-30T06:31:03.658Z,97505.09
2019-01-30T06:33:31.711Z,97506.01
2019-01-30T06:35:59.820Z,97505.02
2019-01-30T06:38:27.849Z,97509.99
2019-01-30T06:40:55.914Z,97517.12
2019-01-30T06:43:23.956Z,97531.72
2019-01-30T06:45:52.101Z,97514.32
2019-01-30T06:48:20.165Z,97513.73
2019-01-30T06:50:48.746Z,97515.27
2019-01-30T06:53:16.821Z,97514.91
2019-01-30T06:55:44.952Z,97514.41
2019-01-30T06:58:13.024Z,97519.89
2019-01-30T07:00:41.103Z,97525.48
2019-01-30T07:03:09.187Z,97518.94
2019-01-30T07:05:39.053Z,97527.14
2019-01-30T07:08:07.147Z,97531.63
2019-01-30T07:10:35.317Z,97529.84
2019-01-30T07:13:03.406Z,97533.53
2019-01-30T07:15:31.425Z,97537.35
2019-01-30T07:17:59.751Z,97543.94
2019-01-30T07:20:27.828Z,97550.66
2019-01-30T07:22:55.842Z,97551.06
2019-01-30T07:25:23.979Z,97556.98
2019-01-30T07:27:52.264Z,97561.80
2019-01-30T07:30:35.105Z,97553.33
2019-01-30T07:33:04.314Z,97573.67
2019-01-30T07:35:32.351Z,97593.06
2019-01-30T07:38:01.566Z,97572.24
2019-01-30T07:40:30.299Z,97567.05
2019-01-30T07:42:58.451Z,97589.03
2019-01-30T07:45:28.319Z,97598.41
2019-01-30T07:47:56.421Z,97599.05
2019-01-30T07:50:24.486Z,97609.82
2019-01-30T07:52:52.680Z,97617.70
2019-01-30T07:55:20.736Z,97615.55
2019-01-30T07:57:48.929Z,97620.47
2019-01-30T08:00:23.829Z,97618.27
2019-01-30T08:02:53.636Z,97620.00
2019-01-30T08:05:22.793Z,97624.92
2019-01-30T08:07:51.475Z,97633.80
2019-01-30T08:10:19.556Z,97627.62
2019-01-30T08:12:47.632Z,97634.03
2019-01-30T08:15:17.004Z,97632.94
2019-01-30T08:17:45.096Z,97629.47
2019-01-30T08:20:16.165Z,97632.37
2019-01-30T08:22:44.511Z,97626.67
2019-01-30T08:25:15.236Z,97643.25
2019-01-30T08:27:43.638Z,97644.47
2019-01-30T08:30:22.582Z,97660.08
2019-01-30T08:32:46.632Z,97666.81
2019-01-30T08:35:15.615Z,97653.89
2019-01-30T08:37:45.896Z,97653.73
2019-01-30T08:40:13.739Z,97657.55
2019-01-30T08:42:41.787Z,97671.44
2019-01-30T08:45:17.602Z,97665.44
2019-01-30T08:47:45.709Z,97686.55
2019-01-30T08:50:14.607Z,97680.61
2019-01-30T08:52:42.713Z,97680.31
2019-01-30T08:55:11.173Z,97696.48
2019-01-30T08:57:39.538Z,97692.08
2019-01-30T09:00:12.225Z,97697.28
2019-01-30T09:02:40.309Z,97700.30
2019-01-30T09:05:08.687Z,97712.55
2019-01-30T09:07:43.860Z,97720.97
2019-01-30T09:10:10.500Z,97728.66
2019-01-30T09:12:38.854Z,97731.98
2019-01-30T09:15:08.811Z,97740.69
2019-01-30T09:17:36.912Z,97722.95
2019-01-30T09:20:07.593Z,97737.36
2019-01-30T09:22:35.647Z,97733.53
2019-01-30T09:25:04.917Z,97738.30
2019-01-30T09:27:32.988Z,97754.94
2019-01-30T09:30:01.324Z,97758.04
2019-01-30T09:32:29.383Z,97746.42
2019-01-30T09:34:57.452Z,97750.12
2019-01-30T09:37:27.289Z,97751.89
2019-01-30T09:39:55.823Z,97749.06
2019-01-30T09:42:24.018Z,97745.36
2019-01-30T09:44:52.135Z,97758.65
2019-01-30T09:47:20.223Z,97766.94
2019-01-30T09:49:48.252Z,97765.34
2019-01-30T09:52:26.397Z,97765.91
2019-01-30T09:54:46.785Z,97770.38
2019-01-30T09:57:15.251Z,97786.95
2019-01-30T09:59:43.340Z,97783.95
2019-01-30T10:02:11.499Z,97803.79
2019-01-30T10:04:40.663Z,97805.52
2019-01-30T10:07:08.986Z,97811.42
2019-01-30T10:09:37.745Z,97812.46
2019-01-30T10:12:06.165Z,97824.25
2019-01-30T10:14:34.594Z,97819.75
2019-01-30T10:17:02.649Z,97831.14
2019-01-30T10:19:30.753Z,97838.83
2019-01-30T10:21:58.838Z,97844.02
2019-01-30T10:24:29.036Z,97838.33
2019-01-30T10:26:57.033Z,97845.31
2019-01-30T10:29:25.121Z,97840.92
2019-01-30T10:31:53.154Z,97843.63
2019-01-30T10:34:21.523Z,97853.22
2019-01-30T10:36:49.547Z,97866.89
2019-01-30T10:39:17.611Z,97861.56
2019-01-30T10:41:45.645Z,97866.76
2019-01-30T10:44:13.788Z,97856.56
2019-01-30T10:46:41.841Z,97873.04
2019-01-30T10:49:09.947Z,97876.80
2019-01-30T10:51:37.956Z,97881.19
2019-01-30T10:54:06.033Z,97884.98
2019-01-30T10:56:34.842Z,97880.84
2019-01-30T10:59:03.216Z,97896.36
2019-01-30T11:01:31.260Z,97898.70
2019-01-30T11:03:59.361Z,97903.98
2019-01-30T11:06:27.367Z,97903.34
2019-01-30T11:08:55.453Z,97905.94
2019-01-30T11:11:24.469Z,97908.67
2019-01-30T11:13:52.822Z,97910.27
2019-01-30T11:16:20.894Z,97912.18
2019-01-30T11:18:48.990Z,97919.05
2019-01-30T11:21:17.082Z,97929.80
2019-01-30T11:23:45.155Z,97928.87
2019-01-30T11:26:14.212Z,97923.88
2019-01-30T11:28:42.288Z,97918.13
2019-01-30T11:31:10.322Z,97940.23
2019-01-30T11:33:38.426Z,97949.55
2019-01-30T11:36:06.602Z,97955.73
2019-01-30T11:38:35.037Z,97957.23
2019-01-30T11:41:03.402Z,97967.30
2019-01-30T11:43:31.511Z,97966.50
2019-01-30T11:46:01.090Z,97968.78
2019-01-30T11:48:29.186Z,97969.59
2019-01-30T11:50:57.198Z,97974.94
2019-01-30T11:53:25.384Z,97976.00
2019-01-30T11:55:53.413Z,97971.34
2019-01-30T11:58:21.478Z,97974.29
2019-01-30T12:00:56.016Z,97978.64
2019-01-30T12:03:24.072Z,97975.09
2019-01-30T12:05:52.117Z,97979.74
2019-01-30T12:08:20.191Z,97983.02
2019-01-30T12:10:48.236Z,97985.23
2019-01-30T12:13:16.301Z,97994.96
2019-01-30T12:15:44.349Z,97989.13
2019-01-30T12:18:12.504Z,97994.88
2019-01-30T12:20:40.612Z,97987.91
2019-01-30T12:23:09.199Z,97997.37
2019-01-30T12:25:37.234Z,98009.34
2019-01-30T12:28:05.540Z,98016.63
2019-01-30T12:30:34.446Z,98018.61
2019-01-30T12:33:02.767Z,98012.63
2019-01-30T12:35:30.832Z,98022.01
2019-01-30T12:38:00.649Z,98029.79
2019-01-30T12:40:28.699Z,98026.70
2019-01-30T12:42:56.763Z,98026.55
2019-01-30T12:45:30.853Z,98023.34
2019-01-30T12:47:59.028Z,98033.53
2019-01-30T12:50:27.407Z,98045.39
2019-01-30T12:52:55.493Z,98056.25
2019-01-30T12:55:23.839Z,98056.75
2019-01-30T12:57:53.356Z,98051.10
2019-01-30T13:00:25.012Z,98061.84
2019-01-30T13:02:53.481Z,98072.25
2019-01-30T13:05:23.899Z,98058.73
2019-01-30T13:07:52.019Z,98070.86
2019-01-30T13:10:20.259Z,98077.53
2019-01-30T13:12:48.641Z,98064.63
2019-01-30T13:15:18.462Z,98074.19
2019-01-30T13:17:46.939Z,98081.97
2019-01-30T13:20:17.568Z,98095.89
2019-01-30T13:22:46.053Z,98089.75
2019-01-30T13:25:17.419Z,98109.20
2019-01-30T13:27:46.837Z,98102.34
2019-01-30T13:30:24.801Z,98116.11
2019-01-30T13:32:52.905Z,98107.22
2019-01-30T13:35:22.120Z,98110.15
2019-01-30T13:37:50.289Z,98127.67
2019-01-30T13:40:25.234Z,98129.16
2019-01-30T13:42:53.499Z,98122.52
2019-01-30T13:45:22.976Z,98129.05
2019-01-30T13:47:52.370Z,98128.77
2019-01-30T13:50:22.698Z,98126.05
2019-01-30T13:52:50.801Z,98129.93
2019-01-30T13:55:18.798Z,98146.23
2019-01-30T13:57:48.074Z,98123.40
2019-01-30T14:00:22.893Z,98140.61
2019-01-30T14:02:52.189Z,98157.95
2019-01-30T14:05:20.283Z,98159.38
2019-01-30T14:07:50.904Z,98165.67
2019-01-30T14:10:19.157Z,98161.66
2019-01-30T14:12:47.325Z,98171.53
2019-01-30T14:15:18.375Z,98185.84
2019-01-30T14:17:46.463Z,98197.50
2019-01-30T14:20:15.269Z,98193.43
2019-01-30T14:22:44.558Z,98208.18
2019-01-30T14:25:13.306Z,98218.55
2019-01-30T14:27:41.466Z,98210.59
2019-01-30T14:30:18.726Z,98217.86
2019-01-30T14:32:47.116Z,98226.44
2019-01-30T14:35:15.180Z,98218.17
2019-01-30T14:37:43.233Z,98226.75
2019-01-30T14:40:13.375Z,98232.27
2019-01-30T14:42:41.414Z,98241.83
2019-01-30T14:45:12.410Z,98249.11
2019-01-30T14:47:40.472Z,98246.20
2019-01-30T14:50:13.323Z,98249.61
2019-01-30T14:52:44.179Z,98259.34
2019-01-30T14:55:13.576Z,98264.16
2019-01-30T14:57:43.340Z,98262.36
2019-01-30T15:00:16.457Z,98270.41
2019-01-30T15:02:44.501Z,98271.37
2019-01-30T15:05:21.868Z,98274.09
2019-01-30T15:07:43.724Z,98278.77
2019-01-30T15:10:14.951Z,98277.61
2019-01-30T15:12:42.994Z,98278.27
2019-01-30T15:15:14.481Z,98278.53
2019-01-30T15:17:42.523Z,98273.69
2019-01-30T15:36:50.806Z,98311.24
2019-01-30T15:39:19.134Z,98308.03
2019-01-30T15:41:47.291Z,98306.86
2019-01-30T15:44:15.630Z,98312.03
2019-01-30T15:46:43.740Z,98315.43
2019-01-30T15:49:12.007Z,98322.72
2019-01-30T15:51:40.082Z,98334.88
2019-01-30T15:54:08.242Z,98333.92
2019-01-30T15:56:37.191Z,98327.30
2019-01-30T15:59:09.017Z,98328.91
2019-01-30T16:01:43.193Z,98337.81
2019-01-30T16:04:11.614Z,98343.00
2019-01-30T16:06:40.651Z,98348.86
2019-01-30T16:09:09.675Z,98346.58
2019-01-30T16:11:37.861Z,98345.32
2019-01-30T16:14:06.128Z,98351.15
2019-01-30T16:16:34.567Z,98348.11
2019-01-30T16:19:02.842Z,98347.30
2019-01-30T16:21:30.938Z,98346.50
2019-01-30T16:23:59.118Z,98355.09
2019-01-30T16:26:27.224Z,98360.28
2019-01-30T16:28:55.678Z,98357.69
2019-01-30T16:31:24.979Z,98358.67
2019-01-30T16:33:53.381Z,98359.66
2019-01-30T16:36:22.027Z,98360.64
2019-01-30T16:38:50.229Z,98362.73
2019-01-30T16:41:18.542Z,98365.34
2019-01-30T16:43:46.644Z,98360.96
2019-01-30T16:46:14.883Z,98366.95
2019-01-30T16:48:43.167Z,98364.53
2019-01-30T16:51:11.551Z,98372.00
2019-01-30T16:53:39.733Z,98375.58
2019-01-30T16:56:07.926Z,98375.27
2019-01-30T16:58:36.715Z,98375.09
2019-01-30T17:01:05.576Z,98376.25
2019-01-30T17:03:33.790Z,98382.73
2019-01-30T17:06:07.636Z,98387.25
2019-01-30T17:08:33.623Z,98383.23
2019-01-30T17:11:02.030Z,98386.14
2019-01-30T17:13:30.510Z,98386.49
2019-01-30T17:15:59.236Z,98396.55
2019-01-30T17:18:27.461Z,98394.45
2019-01-30T17:20:55.797Z,98399.64
2019-01-30T17:23:23.896Z,98395.30
2019-01-30T17:25:53.272Z,98401.78
2019-01-30T17:28:21.593Z,98400.83
2019-01-30T17:31:26.065Z,98402.27
2019-01-30T17:33:54.233Z,98408.78
2019-01-30T17:36:22.616Z,98406.19
2019-01-30T17:38:51.874Z,98413.82
2019-01-30T17:41:20.522Z,98418.02
2019-01-30T17:43:48.996Z,98418.86
2019-01-30T17:46:17.574Z,98422.42
2019-01-30T17:48:48.597Z,98421.45
2019-01-30T17:51:16.187Z,98426.66
2019-01-30T17:53:44.289Z,98428.12
2019-01-30T17:56:12.621Z,98432.81
2019-01-30T17:58:40.735Z,98427.30
2019-01-30T18:01:09.191Z,98427.64
2019-01-30T18:03:37.305Z,98433.00
2019-01-30T18:06:05.958Z,98439.78
2019-01-30T18:08:34.071Z,98434.45
2019-01-30T18:11:03.639Z,98442.56
2019-01-30T18:13:32.072Z,98445.78
2019-01-30T18:16:01.815Z,98448.86
2019-01-30T18:18:29.926Z,98446.59
2019-01-30T18:20:58.202Z,98448.54
2019-01-30T18:23:26.390Z,98449.34
2019-01-30T18:25:54.650Z,98444.83
2019-01-30T18:28:22.783Z,98445.13
2019-01-30T18:30:51.117Z,98443.69
2019-01-30T18:33:20.495Z,98442.88
2019-01-30T18:35:50.561Z,98444.84
2019-01-30T18:38:18.745Z,98443.19
2019-01-30T18:40:47.586Z,98443.04
2019-01-30T18:43:15.832Z,98452.59
2019-01-30T18:45:44.144Z,98445.78
2019-01-30T18:48:12.434Z,98446.30
2019-01-30T18:50:41.717Z,98442.23
2019-01-30T18:53:09.976Z,98443.05
2019-01-30T18:55:38.166Z,98444.84
2019-01-30T18:58:06.470Z,98439.66
2019-01-30T19:00:41.327Z,98434.31
2019-01-30T19:03:13.071Z,98435.27
2019-01-30T19:05:41.211Z,98430.58
2019-01-30T19:08:09.523Z,98435.27
2019-01-30T19:10:38.356Z,98435.76
2019-01-30T19:13:06.586Z,98436.88
2019-01-30T19:15:34.778Z,98433.81
2019-01-30T19:18:03.328Z,98432.86
2019-01-30T19:20:35.145Z,98433.35
2019-01-30T19:23:06.795Z,98434.16
2019-01-30T19:25:33.941Z,98437.55
2019-01-30T19:28:02.262Z,98436.26
2019-01-30T19:30:31.933Z,98431.08
2019-01-30T19:33:00.754Z,98432.06
2019-01-30T19:35:29.303Z,98433.81
2019-01-30T19:37:57.641Z,98433.35
2019-01-30T19:40:26.269Z,98424.43
2019-01-30T19:42:54.393Z,98431.87
2019-01-30T19:45:24.717Z,98428.97
2019-01-30T19:47:53.006Z,98431.87
2019-01-30T19:50:26.681Z,98431.23
2019-01-30T19:52:57.235Z,98431.23
2019-01-30T19:55:28.340Z,98427.35
2019-01-30T19:57:57.075Z,98423.80
2019-01-30T20:00:28.926Z,98433.17
2019-01-30T20:02:57.442Z,98431.39
2019-01-30T20:05:26.039Z,98430.09
2019-01-30T20:07:56.116Z,98424.30
2019-01-30T20:10:30.517Z,98422.34
2019-01-30T20:12:59.818Z,98416.02
2019-01-30T20:15:30.078Z,98415.22
2019-01-30T20:17:58.813Z,98413.27
2019-01-30T20:20:27.429Z,98416.50
2019-01-30T20:22:55.671Z,98418.77
2019-01-30T20:25:27.312Z,98407.61
2019-01-30T20:27:55.446Z,98416.98
2019-01-30T20:30:24.763Z,98418.77
2019-01-30T20:32:53.125Z,98416.01
2019-01-30T20:35:21.882Z,98416.36
2019-01-30T20:37:50.123Z,98414.72
2019-01-30T20:40:21.548Z,98416.16
2019-01-30T20:42:52.620Z,98407.28
2019-01-30T20:45:19.936Z,98414.39
2019-01-30T20:47:49.966Z,98411.31
2019-01-30T20:50:21.337Z,98416.81
2019-01-30T20:52:49.594Z,98411.80
2019-01-30T20:55:19.257Z,98407.59
2019-01-30T20:57:47.370Z,98407.28
2019-01-30T21:00:23.560Z,98409.55
2019-01-30T21:02:51.769Z,98410.50
2019-01-30T21:05:20.990Z,98410.05
2019-01-30T21:07:49.087Z,98410.50
2019-01-30T21:10:23.796Z,98408.40
2019-01-30T21:12:51.897Z,98405.48
2019-01-30T21:15:19.992Z,98406.30
2019-01-30T21:17:50.013Z,98408.08
2019-01-30T21:20:18.076Z,98404.69
2019-01-30T21:22:48.354Z,98401.13
2019-01-30T21:25:19.076Z,98390.27
2019-01-30T21:27:49.317Z,98387.55
2019-01-30T21:30:21.346Z,98392.72
2019-01-30T21:32:50.684Z,98384.29
2019-01-30T21:35:20.737Z,98384.95
2019-01-30T21:37:49.380Z,98384.14
2019-01-30T21:40:17.731Z,98379.14
2019-01-30T21:42:46.915Z,98380.74
2019-01-30T21:45:20.281Z,98376.22
2019-01-30T21:47:48.760Z,98373.95
2019-01-30T21:50:17.252Z,98379.13
2019-01-30T21:52:45.357Z,98373.95
2019-01-30T21:55:18.982Z,98370.55
2019-01-30T21:57:48.389Z,98367.47
2019-01-30T22:00:22.557Z,98368.31
2019-01-30T22:02:51.277Z,98361.35
2019-01-30T22:05:19.361Z,98363.45
2019-01-30T22:07:47.415Z,98354.22
2019-01-30T22:10:18.870Z,98350.51
2019-01-30T22:12:47.046Z,98348.23
2019-01-30T22:15:15.792Z,98346.64
2019-01-30T22:17:44.215Z,98342.27
2019-01-30T22:20:24.077Z,98332.08
2019-01-30T22:22:52.350Z,98334.34
2019-01-30T22:25:21.679Z,98329.84
2019-01-30T22:27:49.785Z,98329.19
2019-01-30T22:30:32.738Z,98320.78
2019-01-30T22:33:00.811Z,98320.94
2019-01-30T22:35:28.900Z,98320.77
2019-01-30T22:37:57.350Z,98319.00
2019-01-30T22:40:25.562Z,98322.23
2019-01-30T22:42:53.633Z,98319.79
2019-01-30T22:45:22.025Z,98315.74
2019-01-30T22:47:50.046Z,98309.78
2019-01-30T22:50:20.335Z,98306.20
2019-01-30T22:52:48.690Z,98302.16
2019-01-30T22:55:18.892Z,98301.98
2019-01-30T22:57:47.079Z,98293.92
2019-01-30T23:00:50.177Z,98296.66
2019-01-30T23:03:19.497Z,98294.05
2019-01-30T23:06:59.743Z,98288.22
2019-01-30T23:10:00.729Z,98287.07
2019-01-30T23:12:58.578Z,98285.14
2019-01-30T23:15:47.194Z,98285.93
2019-01-30T23:19:20.415Z,98283.00
2019-01-30T23:22:38.407Z,98280.74
2019-01-30T23:25:38.992Z,98281.53
2019-01-30T23:28:37.347Z,98283.95
2019-01-30T23:31:28.688Z,98283.12
2019-01-30T23:34:50.328Z,98281.34
2019-01-30T23:38:02.394Z,98276.80
2019-01-30T23:41:42.189Z,98274.67
2019-01-30T23:44:42.697Z,98280.13
2019-01-30T23:48:10.207Z,98277.55
2019-01-30T23:51:32.308Z,98268.97
2019-01-30T23:54:37.181Z,98277.20
2019-01-30T23:57:49.954Z,98270.23
